createdAt,value
2022-10-07T00:00:55.874Z,1.50
2022-10-07T00:03:26.106Z,1.48
2022-10-07T00:06:01.021Z,1.90
2022-10-07T00:08:28.134Z,1.30
2022-10-07T00:10:55.266Z,1.00
2022-10-07T00:13:22.038Z,0.98
2022-10-07T00:15:48.801Z,1.77
2022-10-07T00:18:15.447Z,1.35
2022-10-07T00:20:42.202Z,1.55
2022-10-07T00:23:09.327Z,1.67
2022-10-07T00:25:37.661Z,1.67
2022-10-07T00:28:05.268Z,1.40
2022-10-07T00:30:32.203Z,1.33
2022-10-07T00:32:58.905Z,1.45
2022-10-07T00:35:25.704Z,1.30
2022-10-07T00:37:52.629Z,1.17
2022-10-07T00:40:19.398Z,1.25
2022-10-07T00:42:46.199Z,1.50
2022-10-07T00:45:15.327Z,1.30
2022-10-07T00:47:46.821Z,1.73
2022-10-07T00:50:16.871Z,1.55
2022-10-07T00:52:53.521Z,1.30
2022-10-07T00:55:24.722Z,1.55
2022-10-07T00:57:55.044Z,1.65
2022-10-07T01:00:24.037Z,1.42
2022-10-07T01:02:52.133Z,1.40
2022-10-07T01:05:19.984Z,1.48
2022-10-07T01:07:48.458Z,1.45
2022-10-07T01:10:20.078Z,1.52
2022-10-07T01:13:19.452Z,1.60
2022-10-07T01:16:16.841Z,1.33
2022-10-07T01:19:22.716Z,1.85
2022-10-07T01:22:13.518Z,1.52
2022-10-07T01:24:47.602Z,1.20
2022-10-07T01:27:16.748Z,1.77
2022-10-07T01:29:56.580Z,1.65
2022-10-07T01:32:36.941Z,1.77
2022-10-07T01:35:10.001Z,2.25
2022-10-07T01:37:43.448Z,1.63
2022-10-07T01:40:15.571Z,1.63
2022-10-07T01:42:43.850Z,1.40
2022-10-07T01:45:14.346Z,1.50
2022-10-07T01:47:41.511Z,1.45
2022-10-07T01:50:16.181Z,1.98
2022-10-07T01:52:48.857Z,1.13
2022-10-07T01:55:42.148Z,1.90
2022-10-07T01:58:33.400Z,1.63
2022-10-07T02:02:02.354Z,1.90
2022-10-07T02:05:05.956Z,2.30
2022-10-07T02:07:53.462Z,1.38
2022-10-07T02:10:34.233Z,1.70
2022-10-07T02:13:15.952Z,1.55
2022-10-07T02:15:51.942Z,1.77
2022-10-07T02:18:20.498Z,1.20
2022-10-07T02:20:50.123Z,1.52
2022-10-07T02:23:18.774Z,2.05
2022-10-07T02:25:53.677Z,1.30
2022-10-07T02:28:23.444Z,1.67
2022-10-07T02:30:55.477Z,1.58
2022-10-07T02:35:55.699Z,1.63
2022-10-07T02:38:22.787Z,1.40
2022-10-07T02:41:01.961Z,1.92
2022-10-07T02:43:47.399Z,1.50
2022-10-07T02:46:22.830Z,1.45
2022-10-07T02:48:58.859Z,1.55
2022-10-07T02:51:36.469Z,2.33
2022-10-07T02:54:04.815Z,1.80
2022-10-07T02:56:34.393Z,1.85
2022-10-07T02:59:03.524Z,1.88
2022-10-07T03:01:34.261Z,1.63
2022-10-07T03:04:01.286Z,1.98
2022-10-07T03:06:29.658Z,1.92
2022-10-07T03:08:57.897Z,1.63
2022-10-07T03:11:24.785Z,1.58
2022-10-07T03:13:51.451Z,2.00
2022-10-07T03:16:18.289Z,2.03
2022-10-07T03:18:46.559Z,1.73
2022-10-07T03:21:13.265Z,2.03
2022-10-07T03:23:40.005Z,1.80
2022-10-07T03:26:06.676Z,1.75
2022-10-07T03:28:38.286Z,1.90
2022-10-07T03:31:07.637Z,1.88
2022-10-07T03:33:34.938Z,2.50
2022-10-07T03:36:01.723Z,2.20
2022-10-07T03:38:28.353Z,2.38
2022-10-07T03:40:55.197Z,2.17
2022-10-07T03:43:21.905Z,2.03
2022-10-07T03:45:51.730Z,2.30
2022-10-07T03:48:18.681Z,2.55
2022-10-07T03:50:52.946Z,2.45
2022-10-07T03:53:20.524Z,2.17
2022-10-07T03:55:47.255Z,1.90
2022-10-07T03:58:14.035Z,2.40
2022-10-07T04:00:41.270Z,2.17
2022-10-07T04:03:09.271Z,2.38
2022-10-07T04:05:37.194Z,2.30
2022-10-07T04:08:04.886Z,2.33
2022-10-07T04:10:32.206Z,2.28
2022-10-07T04:12:58.857Z,2.53
2022-10-07T04:15:25.946Z,2.67
2022-10-07T04:17:58.451Z,2.13
2022-10-07T04:20:26.245Z,2.95
2022-10-07T04:22:53.122Z,2.83
2022-10-07T04:25:35.138Z,2.65
2022-10-07T04:28:07.441Z,3.67
2022-10-07T04:30:39.822Z,3.33
2022-10-07T04:33:07.638Z,2.50
2022-10-07T04:35:37.126Z,2.50
2022-10-07T04:38:03.865Z,2.25
2022-10-07T04:40:31.082Z,3.20
2022-10-07T04:43:16.352Z,2.72
2022-10-07T04:45:43.115Z,2.60
2022-10-07T04:48:10.244Z,2.95
2022-10-07T04:50:38.611Z,2.63
2022-10-07T04:53:10.680Z,2.85
2022-10-07T04:55:46.594Z,3.35
2022-10-07T04:58:14.568Z,2.83
2022-10-07T05:00:46.987Z,2.55
2022-10-07T05:03:15.344Z,3.05
2022-10-07T05:05:48.394Z,3.40
2022-10-07T05:08:17.370Z,2.88
2022-10-07T05:10:44.202Z,3.33
2022-10-07T05:13:13.496Z,2.92
2022-10-07T05:15:51.299Z,3.05
2022-10-07T05:18:19.539Z,3.72
2022-10-07T05:20:48.763Z,3.90
2022-10-07T05:23:16.980Z,3.53
2022-10-07T05:25:44.391Z,3.25
2022-10-07T05:28:12.320Z,3.97
2022-10-07T05:30:39.800Z,3.10
2022-10-07T05:33:07.217Z,3.33
2022-10-07T05:35:34.114Z,3.50
2022-10-07T05:38:01.647Z,3.83
2022-10-07T05:40:29.004Z,3.60
2022-10-07T05:42:55.672Z,3.75
2022-10-07T05:45:22.483Z,3.67
2022-10-07T05:47:49.237Z,3.42
2022-10-07T05:50:15.949Z,3.80
2022-10-07T05:52:45.143Z,3.67
2022-10-07T05:55:12.244Z,4.20
2022-10-07T05:57:39.980Z,3.72
2022-10-07T06:00:07.770Z,3.83
2022-10-07T06:02:34.535Z,4.00
2022-10-07T06:05:02.842Z,3.67
2022-10-07T06:07:30.904Z,3.30
2022-10-07T06:10:16.028Z,3.78
2022-10-07T06:13:11.950Z,4.10
2022-10-07T06:15:38.659Z,3.47
2022-10-07T06:18:05.533Z,4.22
2022-10-07T06:20:32.438Z,3.60
2022-10-07T06:22:59.105Z,3.35
2022-10-07T06:25:25.951Z,3.00
2022-10-07T06:27:56.313Z,2.72
2022-10-07T06:30:23.278Z,3.05
2022-10-07T06:32:50.080Z,2.70
2022-10-07T06:35:17.079Z,3.40
2022-10-07T06:37:44.218Z,3.00
2022-10-07T06:40:11.911Z,3.50
2022-10-07T06:42:38.639Z,3.75
2022-10-07T06:45:05.821Z,2.80
2022-10-07T06:47:32.612Z,2.80
2022-10-07T06:49:59.298Z,2.90
2022-10-07T06:52:26.041Z,3.00
2022-10-07T06:54:52.887Z,2.75
2022-10-07T06:57:44.138Z,3.10
2022-10-07T07:00:07.162Z,2.83
2022-10-07T07:02:34.026Z,2.55
2022-10-07T07:05:04.437Z,3.40
2022-10-07T07:07:31.282Z,2.58
2022-10-07T07:09:57.907Z,2.83
2022-10-07T07:12:25.278Z,2.85
2022-10-07T07:14:52.312Z,2.80
2022-10-07T07:17:19.043Z,3.05
2022-10-07T07:19:45.776Z,2.70
2022-10-07T07:22:12.486Z,2.92
2022-10-07T07:24:39.228Z,2.53
2022-10-07T07:27:05.904Z,2.78
2022-10-07T07:29:33.112Z,2.47
2022-10-07T07:32:00.145Z,2.60
2022-10-07T07:34:26.948Z,2.28
2022-10-07T07:36:53.628Z,2.20
2022-10-07T07:39:20.899Z,2.30
2022-10-07T07:41:47.842Z,2.63
2022-10-07T07:44:17.237Z,1.80
2022-10-07T07:46:48.172Z,2.30
2022-10-07T07:49:15.872Z,2.28
2022-10-07T07:51:43.109Z,2.08
2022-10-07T07:54:10.696Z,2.08
2022-10-07T07:56:37.595Z,1.65
2022-10-07T07:59:05.256Z,2.05
2022-10-07T08:01:32.251Z,1.88
2022-10-07T08:03:59.585Z,1.80
2022-10-07T08:06:27.947Z,1.50
2022-10-07T08:08:59.628Z,2.00
2022-10-07T08:11:27.030Z,1.88
2022-10-07T08:13:55.711Z,1.73
2022-10-07T08:16:24.775Z,1.60
2022-10-07T08:18:52.303Z,1.80
2022-10-07T08:21:21.189Z,1.63
2022-10-07T08:23:51.617Z,1.38
2022-10-07T08:26:18.405Z,1.67
2022-10-07T08:28:45.077Z,1.55
2022-10-07T08:31:14.374Z,1.13
2022-10-07T08:33:45.054Z,1.52
2022-10-07T08:36:17.650Z,1.45
2022-10-07T08:38:48.594Z,1.35
2022-10-07T08:41:42.505Z,1.20
2022-10-07T08:44:18.450Z,1.10
2022-10-07T08:47:11.927Z,1.40
2022-10-07T08:50:04.609Z,1.40
2022-10-07T08:52:42.028Z,1.63
2022-10-07T08:55:22.194Z,1.20
2022-10-07T08:57:54.909Z,1.63
2022-10-07T09:00:24.884Z,1.17
2022-10-07T09:03:14.288Z,1.67
2022-10-07T09:05:45.960Z,1.30
2022-10-07T09:08:40.411Z,1.50
2022-10-07T09:11:20.060Z,1.00
2022-10-07T09:13:57.715Z,1.45
2022-10-07T09:19:00.514Z,1.17
2022-10-07T09:21:41.419Z,2.40
2022-10-07T09:24:24.407Z,1.85
2022-10-07T09:26:56.665Z,1.17
2022-10-07T09:29:29.201Z,1.50
2022-10-07T09:32:00.208Z,1.60
2022-10-07T09:34:29.909Z,1.80
2022-10-07T09:37:11.652Z,1.50
2022-10-07T09:39:39.193Z,2.00
2022-10-07T09:42:25.460Z,1.63
2022-10-07T09:44:57.605Z,0.90
2022-10-07T09:47:27.558Z,1.42
2022-10-07T09:49:59.719Z,1.77
2022-10-07T09:52:31.613Z,1.63
2022-10-07T09:55:28.715Z,2.42
2022-10-07T09:58:01.182Z,1.77
2022-10-07T10:00:28.617Z,1.33
2022-10-07T10:03:06.575Z,1.60
2022-10-07T10:05:49.985Z,1.60
2022-10-07T10:08:16.664Z,2.15
2022-10-07T10:10:57.776Z,1.20
2022-10-07T10:13:36.087Z,1.67
2022-10-07T10:16:27.793Z,1.77
2022-10-07T10:19:02.441Z,1.05
2022-10-07T10:21:40.803Z,1.33
2022-10-07T10:24:13.865Z,1.65
2022-10-07T10:27:03.748Z,1.15
2022-10-07T10:29:49.490Z,1.23
2022-10-07T10:32:41.741Z,1.30
2022-10-07T10:35:13.242Z,0.95
2022-10-07T10:37:39.902Z,1.40
2022-10-07T10:40:09.700Z,0.90
2022-10-07T10:42:36.454Z,1.10
2022-10-07T10:45:13.357Z,1.13
2022-10-07T10:48:17.224Z,1.40
2022-10-07T10:50:57.587Z,2.38
2022-10-07T10:53:35.600Z,1.90
2022-10-07T10:56:24.975Z,1.63
2022-10-07T10:59:00.843Z,0.95
2022-10-07T11:01:37.586Z,1.63
2022-10-07T11:04:16.264Z,1.85
2022-10-07T11:06:48.547Z,1.95
2022-10-07T11:09:31.965Z,2.20
2022-10-07T11:12:03.597Z,1.80
2022-10-07T11:14:32.320Z,1.90
2022-10-07T11:17:05.212Z,1.75
2022-10-07T11:19:35.839Z,1.60
2022-10-07T11:22:03.563Z,1.38
2022-10-07T11:24:45.440Z,1.90
2022-10-07T11:27:29.030Z,1.15
2022-10-07T11:32:55.755Z,1.38
2022-10-07T11:35:41.487Z,1.88
2022-10-07T11:38:15.349Z,1.67
2022-10-07T11:40:53.700Z,1.90
2022-10-07T11:43:27.654Z,1.98
2022-10-07T11:46:05.768Z,1.95
2022-10-07T11:48:41.066Z,1.60
2022-10-07T11:51:10.201Z,2.15
2022-10-07T11:53:39.998Z,1.60
2022-10-07T11:56:22.095Z,1.40
2022-10-07T11:59:00.441Z,1.40
2022-10-07T12:01:30.402Z,1.33
2022-10-07T12:04:22.067Z,1.98
2022-10-07T12:07:26.680Z,2.25
2022-10-07T12:09:59.403Z,1.85
2022-10-07T12:12:47.569Z,1.02
2022-10-07T12:15:27.158Z,1.30
2022-10-07T12:18:06.138Z,1.08
2022-10-07T12:20:46.185Z,1.05
2022-10-07T12:23:19.747Z,1.80
2022-10-07T12:26:05.336Z,2.05
2022-10-07T12:28:48.620Z,1.70
2022-10-07T12:31:15.287Z,1.50
2022-10-07T12:33:45.296Z,1.45
2022-10-07T12:36:21.366Z,1.88
2022-10-07T12:39:00.171Z,1.00
2022-10-07T12:41:29.917Z,1.50
2022-10-07T12:44:14.013Z,1.48
2022-10-07T12:46:40.739Z,1.50
2022-10-07T12:49:17.906Z,1.65
2022-10-07T12:51:45.540Z,1.98
2022-10-07T12:54:32.104Z,1.45
2022-10-07T12:57:00.513Z,1.38
2022-10-07T13:00:02.614Z,1.90
2022-10-07T13:03:07.121Z,1.48
2022-10-07T13:06:04.730Z,1.70
2022-10-07T13:09:09.014Z,1.77
2022-10-07T13:12:06.595Z,1.05
2022-10-07T13:15:17.855Z,1.00
2022-10-07T13:17:50.070Z,1.85
2022-10-07T13:20:20.084Z,1.58
2022-10-07T13:22:48.886Z,1.63
2022-10-07T13:25:20.023Z,1.00
2022-10-07T13:27:55.876Z,1.73
2022-10-07T13:30:40.905Z,1.10
2022-10-07T13:33:28.392Z,1.77
2022-10-07T13:36:14.192Z,1.90
2022-10-07T13:38:40.929Z,1.40
2022-10-07T13:41:26.586Z,1.63
2022-10-07T13:43:58.121Z,2.00
2022-10-07T13:46:27.316Z,1.63
2022-10-07T13:48:56.449Z,1.42
2022-10-07T13:51:29.221Z,1.83
2022-10-07T13:53:59.642Z,1.85
2022-10-07T13:56:30.553Z,1.45
2022-10-07T13:58:58.200Z,1.30
2022-10-07T14:01:28.651Z,1.42
2022-10-07T14:04:14.683Z,1.63
2022-10-07T14:07:00.182Z,1.23
2022-10-07T14:09:32.838Z,1.83
2022-10-07T14:12:05.297Z,2.00
2022-10-07T14:14:38.544Z,1.77
2022-10-07T14:17:40.691Z,1.98
2022-10-07T14:20:19.490Z,1.52
2022-10-07T14:22:54.637Z,1.27
2022-10-07T14:25:24.284Z,1.42
2022-10-07T14:27:58.810Z,1.60
2022-10-07T14:30:55.476Z,1.77
2022-10-07T14:33:58.992Z,2.08
2022-10-07T14:36:25.865Z,1.08
2022-10-07T14:38:56.091Z,1.48
2022-10-07T14:41:23.663Z,1.63
2022-10-07T14:43:51.864Z,1.33
2022-10-07T14:46:23.126Z,0.90
2022-10-07T14:51:20.573Z,1.50
2022-10-07T14:53:50.931Z,1.77
2022-10-07T14:56:28.067Z,1.38
2022-10-07T14:58:56.038Z,1.58
2022-10-07T15:01:24.050Z,0.95
2022-10-07T15:03:51.162Z,1.38
2022-10-07T15:06:18.908Z,1.33
2022-10-07T15:08:46.801Z,1.10
2022-10-07T15:11:18.749Z,1.42
2022-10-07T15:13:47.710Z,1.30
2022-10-07T15:16:23.759Z,1.83
2022-10-07T15:18:52.905Z,1.35
2022-10-07T15:21:21.963Z,1.50
2022-10-07T15:23:55.155Z,1.00
2022-10-07T15:26:24.559Z,1.70
2022-10-07T15:28:56.760Z,1.67
2022-10-07T15:31:29.262Z,1.42
2022-10-07T15:33:57.594Z,1.48
2022-10-07T15:36:26.857Z,1.67
2022-10-07T15:38:59.574Z,1.98
2022-10-07T15:41:35.329Z,1.30
2022-10-07T15:44:07.332Z,1.58
2022-10-07T15:46:35.277Z,1.95
2022-10-07T15:49:03.470Z,1.27
2022-10-07T15:51:31.564Z,1.05
2022-10-07T15:53:58.439Z,1.73
2022-10-07T15:56:28.118Z,1.50
2022-10-07T15:58:54.902Z,1.40
2022-10-07T16:01:22.243Z,1.50
2022-10-07T16:03:49.787Z,2.35
2022-10-07T16:06:26.018Z,1.95
2022-10-07T16:08:57.809Z,2.10
2022-10-07T16:11:27.122Z,2.60
2022-10-07T16:13:54.028Z,1.40
2022-10-07T16:16:23.412Z,1.25
2022-10-07T16:18:52.315Z,2.17
2022-10-07T16:21:22.676Z,1.60
2022-10-07T16:23:51.734Z,1.67
2022-10-07T16:26:21.395Z,1.35
2022-10-07T16:29:11.178Z,2.03
2022-10-07T16:31:42.856Z,1.30
2022-10-07T16:34:12.460Z,1.63
2022-10-07T16:36:44.785Z,1.60
2022-10-07T16:39:17.950Z,1.50
2022-10-07T16:41:46.685Z,1.60
2022-10-07T16:44:14.056Z,1.60
2022-10-07T16:46:42.226Z,1.60
2022-10-07T16:49:13.701Z,1.80
2022-10-07T16:51:41.035Z,1.98
2022-10-07T16:54:13.643Z,1.45
2022-10-07T16:56:42.368Z,1.85
2022-10-07T16:59:10.816Z,1.40
2022-10-07T17:01:40.716Z,2.33
2022-10-07T17:04:07.784Z,1.80
2022-10-07T17:06:35.184Z,1.83
2022-10-07T17:09:04.598Z,1.83
2022-10-07T17:11:36.074Z,2.50
2022-10-07T17:14:09.318Z,1.88
2022-10-07T17:16:42.286Z,2.40
2022-10-07T17:19:15.284Z,1.88
2022-10-07T17:21:42.332Z,1.67
2022-10-07T17:24:09.837Z,1.75
2022-10-07T17:26:37.875Z,1.65
2022-10-07T17:29:11.977Z,2.33
2022-10-07T17:31:42.395Z,2.08
2022-10-07T17:34:11.542Z,2.28
2022-10-07T17:36:39.411Z,1.33
2022-10-07T17:39:06.598Z,1.80
2022-10-07T17:41:35.394Z,1.73
2022-10-07T17:44:04.242Z,1.25
2022-10-07T17:46:33.162Z,1.92
2022-10-07T17:49:02.246Z,2.78
2022-10-07T17:51:31.427Z,2.00
2022-10-07T17:54:00.157Z,2.42
2022-10-07T17:56:28.571Z,1.88
2022-10-07T17:58:56.139Z,1.80
2022-10-07T18:01:27.517Z,1.65
2022-10-07T18:04:00.568Z,1.40
2022-10-07T18:06:30.329Z,2.20
2022-10-07T18:09:02.245Z,1.83
2022-10-07T18:11:48.156Z,1.88
2022-10-07T18:14:33.730Z,1.85
2022-10-07T18:17:00.957Z,2.15
2022-10-07T18:19:29.432Z,1.60
2022-10-07T18:21:56.736Z,1.63
2022-10-07T18:24:27.521Z,1.50
2022-10-07T18:26:59.031Z,2.40
2022-10-07T18:29:37.507Z,1.50
2022-10-07T18:32:06.122Z,1.33
2022-10-07T18:34:33.581Z,1.35
2022-10-07T18:37:00.764Z,1.50
2022-10-07T18:39:29.687Z,1.20
2022-10-07T18:41:57.177Z,1.73
2022-10-07T18:44:24.780Z,1.73
2022-10-07T18:46:51.770Z,1.65
2022-10-07T18:49:18.908Z,1.83
2022-10-07T18:51:47.423Z,1.60
2022-10-07T18:54:14.618Z,1.55
2022-10-07T18:56:42.192Z,1.50
2022-10-07T18:59:09.962Z,1.40
2022-10-07T19:01:38.002Z,1.48
2022-10-07T19:04:06.374Z,2.13
2022-10-07T19:06:36.471Z,2.08
2022-10-07T19:09:07.400Z,1.70
2022-10-07T19:11:34.944Z,2.13
2022-10-07T19:14:02.151Z,1.92
2022-10-07T19:16:34.518Z,2.10
2022-10-07T19:19:09.031Z,1.90
2022-10-07T19:21:36.155Z,2.65
2022-10-07T19:24:03.810Z,2.10
2022-10-07T19:26:37.364Z,1.92
2022-10-07T19:29:05.483Z,2.47
2022-10-07T19:31:35.631Z,1.63
2022-10-07T19:34:05.518Z,1.92
2022-10-07T19:36:35.784Z,2.30
2022-10-07T19:39:04.273Z,2.00
2022-10-07T19:41:33.070Z,1.50
2022-10-07T19:44:04.440Z,1.48
2022-10-07T19:46:33.462Z,1.38
2022-10-07T19:49:01.751Z,1.70
2022-10-07T19:51:30.565Z,1.50
2022-10-07T19:53:58.960Z,1.95
2022-10-07T19:56:35.551Z,1.90
2022-10-07T19:59:08.316Z,1.95
2022-10-07T20:01:39.439Z,2.00
2022-10-07T20:04:21.223Z,1.73
2022-10-07T20:06:49.110Z,1.95
2022-10-07T20:09:18.025Z,2.22
2022-10-07T20:11:46.721Z,2.15
2022-10-07T20:14:16.226Z,2.00
2022-10-07T20:16:43.258Z,1.60
2022-10-07T20:19:18.503Z,1.83
2022-10-07T20:21:46.339Z,1.75
2022-10-07T20:24:17.191Z,1.65
2022-10-07T20:26:45.013Z,1.67
2022-10-07T20:29:11.989Z,1.60
2022-10-07T20:31:40.966Z,1.52
2022-10-07T20:34:11.222Z,1.63
2022-10-07T20:36:38.707Z,2.38
2022-10-07T20:39:37.737Z,1.90
2022-10-07T20:42:25.806Z,1.83
2022-10-07T20:44:53.575Z,1.60
2022-10-07T20:47:22.191Z,2.05
2022-10-07T20:49:51.186Z,2.10
2022-10-07T20:52:21.479Z,1.90
2022-10-07T20:54:48.950Z,1.80
2022-10-07T20:57:24.706Z,1.55
2022-10-07T20:59:51.981Z,2.00
2022-10-07T21:02:21.192Z,1.80
2022-10-07T21:04:48.159Z,1.83
2022-10-07T21:07:16.593Z,2.08
2022-10-07T21:09:43.536Z,2.00
2022-10-07T21:12:13.760Z,1.80
2022-10-07T21:14:43.024Z,1.63
2022-10-07T21:17:10.388Z,2.03
2022-10-07T21:19:37.160Z,1.77
2022-10-07T21:22:05.630Z,1.77
2022-10-07T21:24:34.332Z,1.70
2022-10-07T21:27:03.548Z,2.08
2022-10-07T21:29:31.381Z,2.10
2022-10-07T21:31:58.502Z,1.40
2022-10-07T21:34:25.259Z,1.52
2022-10-07T21:36:54.291Z,1.70
2022-10-07T21:39:21.437Z,1.60
2022-10-07T21:41:49.165Z,1.40
2022-10-07T21:44:16.168Z,1.60
2022-10-07T21:46:43.883Z,1.45
2022-10-07T21:49:13.763Z,1.50
2022-10-07T21:51:40.645Z,1.80
2022-10-07T21:54:07.691Z,1.88
2022-10-07T21:56:34.890Z,1.48
2022-10-07T21:59:03.954Z,1.40
2022-10-07T22:01:32.196Z,2.10
2022-10-07T22:04:01.498Z,1.73
2022-10-07T22:06:49.363Z,1.33
2022-10-07T22:09:20.522Z,1.42
2022-10-07T22:11:48.448Z,1.95
2022-10-07T22:14:15.231Z,2.22
2022-10-07T22:16:42.376Z,2.00
2022-10-07T22:19:10.718Z,1.58
2022-10-07T22:21:40.091Z,1.52
2022-10-07T22:24:08.871Z,1.70
2022-10-07T22:26:45.931Z,1.50
2022-10-07T22:29:15.039Z,1.60
2022-10-07T22:31:42.264Z,1.70
2022-10-07T22:34:08.990Z,1.55
2022-10-07T22:36:36.850Z,1.83
2022-10-07T22:39:04.163Z,1.70
2022-10-07T22:41:31.315Z,1.50
2022-10-07T22:43:59.061Z,1.60
2022-10-07T22:46:27.899Z,1.65
2022-10-07T22:48:56.518Z,1.35
2022-10-07T22:51:24.337Z,1.63
2022-10-07T22:53:53.810Z,1.45
2022-10-07T22:56:22.203Z,2.03
2022-10-07T22:58:57.957Z,1.60
2022-10-07T23:01:25.857Z,1.92
2022-10-07T23:03:52.714Z,1.50
2022-10-07T23:06:19.829Z,1.48
2022-10-07T23:08:48.141Z,1.33
2022-10-07T23:11:18.625Z,1.58
2022-10-07T23:13:48.412Z,1.20
2022-10-07T23:16:18.426Z,1.33
2022-10-07T23:18:46.998Z,1.33
2022-10-07T23:21:16.963Z,1.35
2022-10-07T23:23:46.398Z,1.27
2022-10-07T23:26:22.957Z,1.63
2022-10-07T23:28:51.391Z,1.73
2022-10-07T23:31:20.291Z,1.33
2022-10-07T23:33:49.909Z,1.40
2022-10-07T23:36:17.816Z,1.52
2022-10-07T23:38:44.762Z,1.70
2022-10-07T23:41:13.156Z,1.65
2022-10-07T23:43:40.026Z,1.60
2022-10-07T23:46:14.408Z,1.33
2022-10-07T23:48:41.783Z,1.55
2022-10-07T23:51:11.852Z,1.75
2022-10-07T23:53:38.964Z,1.70
2022-10-07T23:56:06.236Z,1.42
2022-10-07T23:58:34.174Z,1.90
